Terminal Aerodrome Forecast
Issued by NWS

Home | Current Version | Previous Version | Text Only | Print | Product List | Glossary On
Versions: 1 2 3 4 5 6 7 8 9 10 11 12 13 14 15 16 17 18
000
FTPA31 PHFO 241741
TAFHJR
TAF
PHJR 241741Z 2418/2518 VRB05KT P6SM FEW025 BKN100
     FM242000 08008KT P6SM FEW025 BKN100
     FM250000 10012G18KT P6SM VCSH SCT025 BKN050
     FM250400 10006KT P6SM SCT025 BKN050=

USA.gov is the U.S. government's official web portal to all federal, state and local government web resources and services.